Terminal Aerodrome Forecast
Issued by NWS Cleveland, OH

Home | Current Version | Previous Version | Graphics & Text | Print | Product List | Glossary Off
Versions: 1 2 3 4 5 6 7 8 9 10 11 12 13 14 15 16 17 18 19 20 21 22 23 24 25 26

000
FTUS41 KCLE 242000 AAA
TAFCLE
TAF AMD
KCLE 242058Z 2421/2524 24006KT P6SM SCT040
      TEMPO 2421/2424 BKN040
     FM250000 20005KT P6SM SCT040
     FM251100 21008KT P6SM BKN025
     FM251700 23012KT P6SM -SHRA BKN015 OVC025
     FM252200 26012KT P6SM SCT025=

USA.gov is the U.S. government's official web portal to all federal, state and local government web resources and services.